createdAt,value
2017-05-12T00:00:15.820Z,34.38
2017-05-12T00:01:15.824Z,34.47
2017-05-12T00:02:15.830Z,34.56
2017-05-12T00:03:15.845Z,34.38
2017-05-12T00:04:15.936Z,34.28
2017-05-12T00:05:15.903Z,34.47
2017-05-12T00:06:15.546Z,34.56
2017-05-12T00:07:15.864Z,34.56
2017-05-12T00:08:15.872Z,34.56
2017-05-12T00:09:15.881Z,34.66
2017-05-12T00:10:15.574Z,34.47
2017-05-12T00:11:15.945Z,34.38
2017-05-12T00:12:15.900Z,34.47
2017-05-12T00:13:15.647Z,34.47
2017-05-12T00:14:15.913Z,34.66
2017-05-12T00:15:15.920Z,34.56
2017-05-12T00:16:15.927Z,34.95
2017-05-12T00:17:15.932Z,34.95
2017-05-12T00:18:15.943Z,34.76
2017-05-12T00:19:15.639Z,34.56
2017-05-12T00:20:15.955Z,34.66
2017-05-12T00:21:15.962Z,34.66
2017-05-12T00:22:15.658Z,34.66
2017-05-12T00:23:15.977Z,34.66
2017-05-12T00:24:16.033Z,34.76
2017-05-12T00:25:15.988Z,34.95
2017-05-12T00:26:15.997Z,35.05
2017-05-12T00:27:16.004Z,34.76
2017-05-12T00:28:15.700Z,34.76
2017-05-12T00:29:16.020Z,34.76
2017-05-12T00:30:16.025Z,34.76
2017-05-12T00:31:16.032Z,34.86
2017-05-12T00:32:16.041Z,34.66
2017-05-12T00:33:16.096Z,34.76
2017-05-12T00:34:16.054Z,34.86
2017-05-12T00:35:16.057Z,34.76
2017-05-12T00:36:16.066Z,34.66
2017-05-12T00:37:16.073Z,34.76
2017-05-12T00:38:16.080Z,34.56
2017-05-12T00:39:15.777Z,34.28
2017-05-12T00:40:16.096Z,34.76
2017-05-12T00:41:16.132Z,34.86
2017-05-12T00:42:16.108Z,34.66
2017-05-12T00:43:15.858Z,34.66
2017-05-12T00:44:15.812Z,34.66
2017-05-12T00:45:16.127Z,34.56
2017-05-12T00:46:16.137Z,34.76
2017-05-12T00:47:16.190Z,34.94
2017-05-12T00:48:16.154Z,34.38
2017-05-12T00:49:16.156Z,34.86
2017-05-12T00:50:16.162Z,34.76
2017-05-12T00:51:15.860Z,35.05
2017-05-12T00:52:16.182Z,34.95
2017-05-12T00:53:16.184Z,35.03
2017-05-12T00:54:16.243Z,34.95
2017-05-12T00:55:16.198Z,34.84
2017-05-12T00:56:16.203Z,34.95
2017-05-12T00:57:16.258Z,35.05
2017-05-12T00:58:16.221Z,34.86
2017-05-12T00:59:16.228Z,34.74
2017-05-12T01:00:16.242Z,34.95
2017-05-12T01:01:16.238Z,34.94
2017-05-12T01:02:16.296Z,34.86
2017-05-12T01:03:16.257Z,34.86
2017-05-12T01:04:15.952Z,34.94
2017-05-12T01:05:16.316Z,34.86
2017-05-12T01:06:15.965Z,34.94
2017-05-12T01:07:15.969Z,34.84
2017-05-12T01:08:16.289Z,34.95
2017-05-12T01:09:16.296Z,34.86
2017-05-12T01:10:16.302Z,34.86
2017-05-12T01:11:16.352Z,34.95
2017-05-12T01:12:16.313Z,34.95
2017-05-12T01:13:16.376Z,34.95
2017-05-12T01:14:16.379Z,34.94
2017-05-12T01:15:16.336Z,34.94
2017-05-12T01:16:16.342Z,34.95
2017-05-12T01:17:16.349Z,34.84
2017-05-12T01:18:16.363Z,34.95
2017-05-12T01:19:16.057Z,34.86
2017-05-12T01:20:16.369Z,34.95
2017-05-12T01:21:16.378Z,34.86
2017-05-12T01:22:16.434Z,34.95
2017-05-12T01:23:16.393Z,34.94
2017-05-12T01:24:16.400Z,34.94
2017-05-12T01:25:16.404Z,34.86
2017-05-12T01:26:16.414Z,34.94
2017-05-12T01:27:16.418Z,34.84
2017-05-12T01:28:16.114Z,34.84
2017-05-12T01:29:16.483Z,34.84
2017-05-12T01:30:16.439Z,34.94
2017-05-12T01:31:16.445Z,34.94
2017-05-12T01:32:16.142Z,34.94
2017-05-12T01:33:16.154Z,34.94
2017-05-12T01:34:16.469Z,34.94
2017-05-12T01:35:16.471Z,34.84
2017-05-12T01:36:16.480Z,34.94
2017-05-12T01:37:16.486Z,34.95
2017-05-12T01:38:16.493Z,34.94
2017-05-12T01:39:16.502Z,34.94
2017-05-12T01:40:16.196Z,35.03
2017-05-12T01:41:16.513Z,34.84
2017-05-12T01:42:16.522Z,34.84
2017-05-12T01:43:16.581Z,34.94
2017-05-12T01:44:16.536Z,34.94
2017-05-12T01:45:16.541Z,34.84
2017-05-12T01:46:16.600Z,34.94
2017-05-12T01:47:16.557Z,34.84
2017-05-12T01:48:16.251Z,34.84
2017-05-12T01:49:16.569Z,34.84
2017-05-12T01:50:16.365Z,34.84
2017-05-12T01:51:16.586Z,34.84
2017-05-12T01:52:16.595Z,34.94
2017-05-12T01:53:16.599Z,34.84
2017-05-12T01:54:16.614Z,34.84
2017-05-12T01:55:16.619Z,34.84
2017-05-12T01:56:16.623Z,34.84
2017-05-12T01:57:16.625Z,34.94
2017-05-12T01:58:16.632Z,34.84
2017-05-12T01:59:16.642Z,34.84
2017-05-12T02:00:16.695Z,34.94
2017-05-12T02:01:16.341Z,34.94
2017-05-12T02:02:16.707Z,34.64
2017-05-12T02:03:16.713Z,34.84
2017-05-12T02:04:16.671Z,34.84
2017-05-12T02:05:16.780Z,34.94
2017-05-12T02:06:16.686Z,34.74
2017-05-12T02:07:16.694Z,34.84
2017-05-12T02:08:16.701Z,34.74
2017-05-12T02:09:16.707Z,34.74
2017-05-12T02:10:16.713Z,34.64
2017-05-12T02:11:16.720Z,34.64
2017-05-12T02:12:16.728Z,34.74
2017-05-12T02:13:16.423Z,34.74
2017-05-12T02:14:16.436Z,34.74
2017-05-12T02:15:16.749Z,34.84
2017-05-12T02:16:16.756Z,34.74
2017-05-12T02:17:16.815Z,34.64
2017-05-12T02:18:16.461Z,34.64
2017-05-12T02:19:16.823Z,34.64
2017-05-12T02:20:16.779Z,34.64
2017-05-12T02:21:16.795Z,34.64
2017-05-12T02:22:16.484Z,34.84
2017-05-12T02:23:16.801Z,34.64
2017-05-12T02:24:16.858Z,34.55
2017-05-12T02:25:16.811Z,34.64
2017-05-12T02:26:16.823Z,34.74
2017-05-12T02:27:16.828Z,34.55
2017-05-12T02:28:16.837Z,34.74
2017-05-12T02:29:16.895Z,34.64
2017-05-12T02:30:16.540Z,34.64
2017-05-12T02:31:16.858Z,34.74
2017-05-12T02:32:16.601Z,34.74
2017-05-12T02:33:16.921Z,34.64
2017-05-12T02:34:16.878Z,34.74
2017-05-12T02:35:16.884Z,34.74
2017-05-12T02:36:16.580Z,34.55
2017-05-12T02:37:16.897Z,34.55
2017-05-12T02:38:16.905Z,34.64
2017-05-12T02:39:16.911Z,34.64
2017-05-12T02:40:17.215Z,34.64
2017-05-12T02:41:16.925Z,34.64
2017-05-12T02:42:16.931Z,34.64
2017-05-12T02:43:16.936Z,34.74
2017-05-12T02:44:16.947Z,34.64
2017-05-12T02:45:17.001Z,34.64
2017-05-12T02:46:17.010Z,34.74
2017-05-12T02:47:16.655Z,34.74
2017-05-12T02:48:16.972Z,34.64
2017-05-12T02:49:17.029Z,34.64
2017-05-12T02:50:16.673Z,34.55
2017-05-12T02:51:17.043Z,34.64
2017-05-12T02:52:16.688Z,34.64
2017-05-12T02:53:16.745Z,34.64
2017-05-12T02:54:16.701Z,34.64
2017-05-12T02:55:17.021Z,34.64
2017-05-12T02:56:16.714Z,34.74
2017-05-12T02:57:16.772Z,34.74
2017-05-12T02:58:17.040Z,34.74
2017-05-12T02:59:17.049Z,34.64
2017-05-12T03:00:17.050Z,34.64
2017-05-12T03:01:16.750Z,34.74
2017-05-12T03:02:17.115Z,34.64
2017-05-12T03:03:17.074Z,34.64
2017-05-12T03:04:17.079Z,34.74
2017-05-12T03:05:16.777Z,34.74
2017-05-12T03:06:17.093Z,34.64
2017-05-12T03:07:17.102Z,34.64
2017-05-12T03:08:17.157Z,34.74
2017-05-12T03:09:17.116Z,34.74
2017-05-12T03:10:17.121Z,34.74
2017-05-12T03:11:17.135Z,34.74
2017-05-12T03:12:17.132Z,34.64
2017-05-12T03:13:16.829Z,34.84
2017-05-12T03:14:17.152Z,34.74
2017-05-12T03:15:17.154Z,34.84
2017-05-12T03:16:17.161Z,34.74
2017-05-12T03:17:17.168Z,34.74
2017-05-12T03:18:17.176Z,34.64
2017-05-12T03:19:17.178Z,34.64
2017-05-12T03:20:17.189Z,34.74
2017-05-12T03:21:17.253Z,34.64
2017-05-12T03:22:17.207Z,34.74
2017-05-12T03:23:17.259Z,34.74
2017-05-12T03:24:17.215Z,34.74
2017-05-12T03:25:17.225Z,34.74
2017-05-12T03:26:16.921Z,34.84
2017-05-12T03:27:17.235Z,34.74
2017-05-12T03:28:17.243Z,34.64
2017-05-12T03:29:17.302Z,34.74
2017-05-12T03:30:16.946Z,34.74
2017-05-12T03:31:17.267Z,34.74
2017-05-12T03:32:17.269Z,34.74
2017-05-12T03:33:17.280Z,34.74
2017-05-12T03:34:17.284Z,34.84
2017-05-12T03:35:17.292Z,35.03
2017-05-12T03:36:17.299Z,35.13
2017-05-12T03:37:17.351Z,34.94
2017-05-12T03:38:17.314Z,35.13
2017-05-12T03:39:17.007Z,35.03
2017-05-12T03:40:17.326Z,34.84
2017-05-12T03:41:17.018Z,35.03
2017-05-12T03:42:17.389Z,35.03
2017-05-12T03:43:17.344Z,34.94
2017-05-12T03:44:17.349Z,35.03
2017-05-12T03:45:17.357Z,34.74
2017-05-12T03:46:17.362Z,34.84
2017-05-12T03:47:17.369Z,34.94
2017-05-12T03:48:17.376Z,34.94
2017-05-12T03:49:17.383Z,34.94
2017-05-12T03:50:17.389Z,35.03
2017-05-12T03:51:17.397Z,35.13
2017-05-12T03:52:17.405Z,34.94
2017-05-12T03:53:17.417Z,35.13
2017-05-12T03:54:17.418Z,35.03
2017-05-12T03:55:17.428Z,35.03
2017-05-12T03:56:17.434Z,34.94
2017-05-12T03:57:17.130Z,34.94
2017-05-12T03:58:17.135Z,34.94
2017-05-12T03:59:17.507Z,35.03
2017-05-12T04:00:17.151Z,35.03
2017-05-12T04:01:17.155Z,35.03
2017-05-12T04:02:17.477Z,35.13
2017-05-12T04:03:17.489Z,35.13
2017-05-12T04:04:17.487Z,35.03
2017-05-12T04:05:17.496Z,35.13
2017-05-12T04:06:17.497Z,35.13
2017-05-12T04:07:17.506Z,35.13
2017-05-12T04:08:17.567Z,35.13
2017-05-12T04:09:17.520Z,34.94
2017-05-12T04:10:17.216Z,35.03
2017-05-12T04:11:17.533Z,35.03
2017-05-12T04:12:17.592Z,35.03
2017-05-12T04:13:17.553Z,34.94
2017-05-12T04:14:17.553Z,34.94
2017-05-12T04:15:17.251Z,35.03
2017-05-12T04:16:17.618Z,35.03
2017-05-12T04:17:17.575Z,35.03
2017-05-12T04:18:17.580Z,34.94
2017-05-12T04:19:17.585Z,35.03
2017-05-12T04:20:17.645Z,34.94
2017-05-12T04:21:17.649Z,35.03
2017-05-12T04:22:17.609Z,35.13
2017-05-12T04:23:17.616Z,34.94
2017-05-12T04:24:17.620Z,35.13
2017-05-12T04:25:17.629Z,35.13
2017-05-12T04:26:17.684Z,35.03
2017-05-12T04:27:17.642Z,35.13
2017-05-12T04:28:17.648Z,35.03
2017-05-12T04:29:17.659Z,34.94
2017-05-12T04:30:17.356Z,35.13
2017-05-12T04:31:17.671Z,35.03
2017-05-12T04:32:17.676Z,35.02
2017-05-12T04:33:17.733Z,34.94
2017-05-12T04:34:17.688Z,34.94
2017-05-12T04:35:17.749Z,35.03
2017-05-12T04:36:17.711Z,35.13
2017-05-12T04:37:17.709Z,35.13
2017-05-12T04:38:17.715Z,35.03
2017-05-12T04:39:17.721Z,35.03
2017-05-12T04:40:18.028Z,34.94
2017-05-12T04:41:17.473Z,35.03
2017-05-12T04:42:17.433Z,35.13
2017-05-12T04:43:17.440Z,35.03
2017-05-12T04:44:17.756Z,34.94
2017-05-12T04:45:17.768Z,34.94
2017-05-12T04:46:17.458Z,35.03
2017-05-12T04:47:17.827Z,34.94
2017-05-12T04:48:17.782Z,35.03
2017-05-12T04:49:17.844Z,34.94
2017-05-12T04:50:17.484Z,35.03
2017-05-12T04:51:17.494Z,34.94
2017-05-12T04:52:17.811Z,35.13
2017-05-12T04:53:17.870Z,35.03
2017-05-12T04:54:17.923Z,35.03
2017-05-12T04:55:17.888Z,35.13
2017-05-12T04:56:17.530Z,34.94
2017-05-12T04:57:17.842Z,34.74
2017-05-12T04:58:17.537Z,35.03
2017-05-12T04:59:17.548Z,34.94
2017-05-12T05:00:17.865Z,34.74
2017-05-12T05:01:17.870Z,34.74
2017-05-12T05:02:17.877Z,34.74
2017-05-12T05:03:17.575Z,34.74
2017-05-12T05:04:17.890Z,34.64
2017-05-12T05:05:17.904Z,34.74
2017-05-12T05:06:17.905Z,34.64
2017-05-12T05:07:17.913Z,34.74
2017-05-12T05:08:17.607Z,34.64
2017-05-12T05:09:17.924Z,34.74
2017-05-12T05:10:17.935Z,34.74
2017-05-12T05:11:17.941Z,34.74
2017-05-12T05:12:17.949Z,34.64
2017-05-12T05:13:17.641Z,34.64
2017-05-12T05:14:17.648Z,34.64
2017-05-12T05:15:17.967Z,34.64
2017-05-12T05:16:17.661Z,34.74
2017-05-12T05:17:17.978Z,34.64
2017-05-12T05:18:17.986Z,34.64
2017-05-12T05:19:17.999Z,34.64
2017-05-12T05:20:17.686Z,34.64
2017-05-12T05:21:18.004Z,34.74
2017-05-12T05:22:18.012Z,34.74
2017-05-12T05:23:18.068Z,34.74
2017-05-12T05:24:18.025Z,34.64
2017-05-12T05:25:17.723Z,34.94
2017-05-12T05:26:18.042Z,35.13
2017-05-12T05:27:18.046Z,35.03
2017-05-12T05:28:18.053Z,35.22
2017-05-12T05:29:18.059Z,35.32
2017-05-12T05:30:18.153Z,35.13
2017-05-12T05:31:18.074Z,35.42
2017-05-12T05:32:18.079Z,35.32
2017-05-12T05:33:18.085Z,35.52
2017-05-12T05:34:18.142Z,36.38
2017-05-12T05:35:18.098Z,36
2017-05-12T05:36:17.794Z,36.09
2017-05-12T05:37:17.802Z,35.52
2017-05-12T05:38:18.120Z,35.61
2017-05-12T05:39:17.818Z,35.61
2017-05-12T05:40:18.136Z,35.8
2017-05-12T05:41:17.881Z,36.19
2017-05-12T05:42:17.837Z,35.9
2017-05-12T05:43:18.156Z,36.38
2017-05-12T05:44:18.161Z,36.57
2017-05-12T05:45:18.168Z,36.01
2017-05-12T05:46:18.176Z,36.01
2017-05-12T05:47:18.485Z,36.01
2017-05-12T05:48:18.192Z,35.44
2017-05-12T05:49:18.197Z,36.01
2017-05-12T05:50:17.891Z,35.72
2017-05-12T05:51:18.209Z,36.21
2017-05-12T05:52:18.216Z,35.72
2017-05-12T05:53:18.227Z,36.11
2017-05-12T05:54:18.231Z,36.11
2017-05-12T05:55:18.240Z,36.4
2017-05-12T05:56:18.246Z,36.3
2017-05-12T05:57:17.941Z,36.3
2017-05-12T05:58:17.947Z,36.3
2017-05-12T05:59:18.266Z,36.5
2017-05-12T06:00:18.275Z,36.11
2017-05-12T06:01:17.969Z,36.4
2017-05-12T06:02:18.288Z,36.3
2017-05-12T06:03:18.297Z,36.4
2017-05-12T06:04:17.993Z,36.4
2017-05-12T06:05:17.998Z,36.11
2017-05-12T06:06:18.321Z,35.92
2017-05-12T06:07:18.325Z,36.5
2017-05-12T06:08:18.328Z,36.11
2017-05-12T06:09:18.338Z,36.3
2017-05-12T06:10:18.080Z,36.3
2017-05-12T06:11:18.037Z,36.21
2017-05-12T06:12:18.356Z,36.4
2017-05-12T06:13:18.101Z,36.11
2017-05-12T06:14:18.370Z,36.4
2017-05-12T06:15:18.377Z,36.79
2017-05-12T06:16:18.385Z,36.88
2017-05-12T06:17:18.391Z,36.69
2017-05-12T06:18:18.086Z,36.69
2017-05-12T06:19:18.406Z,36.69
2017-05-12T06:20:18.412Z,36.88
2017-05-12T06:21:18.110Z,36.69
2017-05-12T06:22:18.113Z,36.5
2017-05-12T06:23:18.434Z,36.87
2017-05-12T06:24:18.131Z,36.79
2017-05-12T06:25:18.446Z,36.88
2017-05-12T06:26:18.455Z,36.88
2017-05-12T06:27:18.149Z,36.88
2017-05-12T06:28:18.516Z,36.88
2017-05-12T06:29:18.165Z,36.5
2017-05-12T06:30:18.480Z,36.59
2017-05-12T06:31:18.492Z,36.4
2017-05-12T06:32:18.494Z,36.59
2017-05-12T06:33:18.500Z,36.4
2017-05-12T06:34:18.515Z,36.79
2017-05-12T06:35:18.573Z,36.69
2017-05-12T06:36:18.522Z,36.79
2017-05-12T06:37:18.219Z,36.79
2017-05-12T06:38:18.536Z,37.08
2017-05-12T06:39:18.543Z,36.88
2017-05-12T06:40:18.554Z,36.88
2017-05-12T06:41:18.605Z,36.98
2017-05-12T06:42:18.564Z,36.79
2017-05-12T06:43:18.570Z,36.69
2017-05-12T06:44:18.271Z,36.69
2017-05-12T06:45:18.275Z,36.69
2017-05-12T06:46:18.593Z,36.5
2017-05-12T06:47:18.699Z,36.69
2017-05-12T06:48:18.606Z,36.4
2017-05-12T06:49:18.305Z,36.59
2017-05-12T06:50:18.622Z,36.5
2017-05-12T06:51:18.319Z,36.4
2017-05-12T06:52:18.322Z,36.5
2017-05-12T06:53:18.639Z,36.4
2017-05-12T06:54:18.646Z,36.3
2017-05-12T06:55:18.704Z,36.4
2017-05-12T06:56:18.662Z,36.3
2017-05-12T06:57:18.410Z,35.92
2017-05-12T06:58:18.678Z,35.82
2017-05-12T06:59:18.685Z,35.82
2017-05-12T07:00:18.689Z,36.01
2017-05-12T07:01:18.387Z,36.11
2017-05-12T07:02:18.804Z,35.53
2017-05-12T07:03:18.712Z,35.72
2017-05-12T07:04:18.719Z,36.3
2017-05-12T07:05:18.726Z,36.3
2017-05-12T07:06:18.424Z,36.32
2017-05-12T07:07:18.743Z,35.45
2017-05-12T07:08:18.437Z,36.32
2017-05-12T07:09:18.807Z,36.21
2017-05-12T07:10:18.763Z,35.74
2017-05-12T07:11:18.769Z,35.64
2017-05-12T07:12:18.827Z,35.45
2017-05-12T07:13:18.475Z,35.55
2017-05-12T07:14:18.795Z,35.55
2017-05-12T07:15:18.798Z,35.64
2017-05-12T07:16:18.500Z,35.64
2017-05-12T07:17:18.814Z,35.74
2017-05-12T07:18:18.821Z,35.55
2017-05-12T07:19:18.826Z,35.55
2017-05-12T07:20:18.524Z,35.55
2017-05-12T07:21:18.890Z,35.55
2017-05-12T07:22:18.851Z,35.36
2017-05-12T07:23:18.545Z,35.36
2017-05-12T07:24:18.863Z,35.26
2017-05-12T07:25:18.872Z,35.08
2017-05-12T07:26:18.887Z,34.99
2017-05-12T07:27:18.885Z,34.89
2017-05-12T07:28:18.892Z,34.41
2017-05-12T07:29:18.898Z,34.42
2017-05-12T07:30:18.909Z,34.5
2017-05-12T07:31:18.915Z,33.94
2017-05-12T07:32:18.977Z,33.94
2017-05-12T07:33:18.929Z,34.13
2017-05-12T07:34:18.935Z,34.13
2017-05-12T07:35:18.944Z,34.04
2017-05-12T07:36:18.953Z,33.75
2017-05-12T07:37:19.020Z,33.84
2017-05-12T07:38:18.966Z,33.55
2017-05-12T07:39:18.975Z,33.09
2017-05-12T07:40:18.981Z,33.37
2017-05-12T07:41:18.990Z,32.89
2017-05-12T07:42:18.683Z,33.09
2017-05-12T07:43:18.735Z,32.99
2017-05-12T07:44:18.701Z,33.18
2017-05-12T07:45:19.018Z,33.37
2017-05-12T07:46:19.023Z,32.99
2017-05-12T07:47:18.771Z,33.09
2017-05-12T07:48:19.041Z,32.79
2017-05-12T07:49:19.048Z,32.89
2017-05-12T07:50:18.743Z,32.62
2017-05-12T07:51:19.060Z,32.33
2017-05-12T07:52:19.067Z,32.23
2017-05-12T07:53:18.765Z,32.04
2017-05-12T07:54:19.084Z,31.65
2017-05-12T07:55:19.089Z,31.76
2017-05-12T07:56:19.096Z,31.65
2017-05-12T07:57:19.102Z,31.37
2017-05-12T07:58:18.802Z,31.74
2017-05-12T07:59:18.809Z,31.65
2017-05-12T08:00:18.917Z,31.84
2017-05-12T08:01:19.133Z,31.94
2017-05-12T08:02:19.140Z,32.04
2017-05-12T08:03:18.837Z,31.94
2017-05-12T08:04:19.154Z,32.04
2017-05-12T08:05:19.164Z,31.84
2017-05-12T08:06:19.175Z,31.94
2017-05-12T08:07:19.229Z,32.04
2017-05-12T08:08:18.871Z,31.94
2017-05-12T08:09:19.194Z,32.04
2017-05-12T08:10:18.890Z,32.14
2017-05-12T08:11:19.205Z,32.04
2017-05-12T08:12:19.211Z,31.94
2017-05-12T08:13:19.220Z,31.94
2017-05-12T08:14:19.279Z,31.74
2017-05-12T08:15:19.236Z,31.84
2017-05-12T08:16:19.296Z,31.84
2017-05-12T08:17:19.251Z,31.84
2017-05-12T08:18:18.947Z,31.94
2017-05-12T08:19:19.266Z,31.84
2017-05-12T08:20:19.272Z,31.84
2017-05-12T08:21:19.281Z,31.76
2017-05-12T08:22:19.286Z,31.84
2017-05-12T08:23:19.297Z,31.94
2017-05-12T08:24:19.043Z,31.94
2017-05-12T08:25:19.308Z,31.94
2017-05-12T08:26:19.316Z,31.74
2017-05-12T08:27:19.324Z,31.84
2017-05-12T08:28:19.023Z,31.76
2017-05-12T08:29:19.339Z,31.84
2017-05-12T08:30:19.345Z,31.65
2017-05-12T08:31:19.364Z,31.84
2017-05-12T08:32:19.363Z,31.65
2017-05-12T08:33:19.061Z,31.74
2017-05-12T08:34:19.389Z,32.04
2017-05-12T08:35:19.382Z,31.84
2017-05-12T08:36:19.390Z,31.65
2017-05-12T08:37:19.397Z,31.94
2017-05-12T08:38:19.402Z,32.04
2017-05-12T08:39:19.415Z,32.04
2017-05-12T08:40:19.418Z,32.14
2017-05-12T08:41:19.427Z,31.94
2017-05-12T08:42:19.433Z,31.94
2017-05-12T08:43:19.445Z,31.65
2017-05-12T08:44:19.447Z,31.56
2017-05-12T08:45:19.458Z,31.46
2017-05-12T08:46:19.512Z,31.36
2017-05-12T08:47:19.772Z,31.46
2017-05-12T08:48:19.479Z,31.46
2017-05-12T08:49:19.539Z,31.47
2017-05-12T08:50:19.499Z,31.47
2017-05-12T08:51:19.500Z,31.46
2017-05-12T08:52:19.557Z,31.37
2017-05-12T08:53:19.517Z,31.28
2017-05-12T08:54:19.526Z,31.09
2017-05-12T08:55:19.532Z,31.18
2017-05-12T08:56:19.538Z,31.37
2017-05-12T08:57:19.548Z,31.37
2017-05-12T08:58:19.552Z,31.26
2017-05-12T08:59:19.558Z,31.47
2017-05-12T09:00:19.567Z,31.46
2017-05-12T09:01:19.577Z,31.37
2017-05-12T09:02:19.586Z,31.46
2017-05-12T09:03:19.591Z,31.65
2017-05-12T09:04:19.608Z,31.56
2017-05-12T09:05:19.654Z,31.28
2017-05-12T09:06:19.615Z,31.37
2017-05-12T09:07:19.620Z,31.56
2017-05-12T09:08:19.627Z,31.56
2017-05-12T09:09:19.335Z,31.65
2017-05-12T09:10:19.643Z,31.65
2017-05-12T09:11:19.647Z,31.65
2017-05-12T09:12:19.658Z,31.84
2017-05-12T09:13:19.664Z,31.84
2017-05-12T09:14:19.721Z,31.84
2017-05-12T09:15:19.680Z,31.94
2017-05-12T09:16:19.684Z,31.84
2017-05-12T09:17:19.437Z,31.84
2017-05-12T09:18:19.750Z,32.04
2017-05-12T09:19:19.709Z,32.14
2017-05-12T09:20:19.716Z,31.84
2017-05-12T09:21:19.723Z,31.84
2017-05-12T09:22:19.421Z,31.65
2017-05-12T09:23:19.440Z,31.74
2017-05-12T09:24:19.746Z,31.74
2017-05-12T09:25:19.442Z,31.74
2017-05-12T09:26:19.450Z,31.74
2017-05-12T09:27:19.867Z,31.74
2017-05-12T09:28:19.775Z,31.84
2017-05-12T09:29:19.782Z,31.74
2017-05-12T09:30:19.789Z,31.84
2017-05-12T09:31:19.795Z,31.74
2017-05-12T09:32:19.802Z,31.94
2017-05-12T09:33:19.811Z,31.94
2017-05-12T09:34:19.512Z,32.04
2017-05-12T09:35:19.830Z,32.04
2017-05-12T09:36:19.882Z,31.84
2017-05-12T09:37:19.851Z,31.84
2017-05-12T09:38:19.851Z,31.84
2017-05-12T09:39:19.854Z,31.74
2017-05-12T09:40:19.863Z,31.56
2017-05-12T09:41:19.868Z,31.56
2017-05-12T09:42:19.876Z,31.56
2017-05-12T09:43:19.893Z,31.46
2017-05-12T09:44:19.895Z,31.36
2017-05-12T09:45:19.903Z,31.47
2017-05-12T09:46:19.906Z,31.09
2017-05-12T09:47:19.607Z,30.99
2017-05-12T09:48:19.925Z,31.09
2017-05-12T09:49:19.933Z,31.09
2017-05-12T09:50:19.939Z,31.09
2017-05-12T09:51:19.952Z,31.28
2017-05-12T09:52:19.951Z,31.28
2017-05-12T09:53:19.965Z,31.09
2017-05-12T09:54:19.706Z,31.37
2017-05-12T09:55:19.974Z,31.36
2017-05-12T09:56:19.984Z,31.36
2017-05-12T09:57:19.988Z,31.28
2017-05-12T09:58:20.049Z,31.57
2017-05-12T09:59:20.055Z,31.36
2017-05-12T10:00:20.011Z,31.46
2017-05-12T10:01:20.019Z,31.18
2017-05-12T10:02:20.028Z,31.47
2017-05-12T10:03:20.038Z,31.46
2017-05-12T10:04:20.042Z,31.65
2017-05-12T10:05:20.050Z,31.74
2017-05-12T10:06:19.750Z,32.04
2017-05-12T10:07:20.067Z,32.04
2017-05-12T10:08:19.760Z,32.14
2017-05-12T10:09:20.080Z,32.04
2017-05-12T10:10:20.089Z,31.84
2017-05-12T10:11:19.786Z,31.94
2017-05-12T10:12:20.104Z,32.14
2017-05-12T10:13:20.109Z,32.14
2017-05-12T10:14:20.117Z,31.93
2017-05-12T10:15:20.124Z,31.94
2017-05-12T10:16:20.135Z,31.94
2017-05-12T10:17:20.141Z,31.56
2017-05-12T10:18:20.143Z,31.36
2017-05-12T10:19:19.842Z,31.37
2017-05-12T10:20:19.858Z,31.84
2017-05-12T10:21:20.170Z,31.84
2017-05-12T10:22:20.184Z,31.74
2017-05-12T10:23:20.187Z,31.74
2017-05-12T10:24:20.197Z,31.84
2017-05-12T10:25:20.202Z,31.84
2017-05-12T10:26:20.211Z,32.04
2017-05-12T10:27:20.217Z,32.33
2017-05-12T10:28:20.225Z,32.21
2017-05-12T10:29:20.232Z,32.23
2017-05-12T10:30:20.289Z,32.12
2017-05-12T10:31:20.307Z,32.31
2017-05-12T10:32:20.255Z,32.51
2017-05-12T10:33:20.261Z,32.31
2017-05-12T10:34:20.267Z,32.51
2017-05-12T10:35:20.374Z,32.6
2017-05-12T10:36:20.336Z,32.31
2017-05-12T10:37:20.293Z,32.41
2017-05-12T10:38:19.989Z,32.31
2017-05-12T10:39:20.310Z,31.93
2017-05-12T10:40:20.314Z,32.04
2017-05-12T10:41:20.327Z,31.94
2017-05-12T10:42:20.329Z,31.94
2017-05-12T10:43:20.336Z,31.94
2017-05-12T10:44:20.402Z,31.65
2017-05-12T10:45:20.351Z,31.74
2017-05-12T10:46:20.358Z,31.94
2017-05-12T10:47:20.365Z,32.04
2017-05-12T10:48:20.065Z,31.94
2017-05-12T10:49:20.072Z,31.94
2017-05-12T10:50:20.390Z,32.04
2017-05-12T10:51:20.397Z,32.04
2017-05-12T10:52:20.404Z,32.21
2017-05-12T10:53:20.412Z,32.23
2017-05-12T10:54:20.159Z,32.12
2017-05-12T10:55:20.171Z,32.41
2017-05-12T10:56:20.432Z,32.41
2017-05-12T10:57:20.183Z,32.31
2017-05-12T10:58:20.450Z,32.31
2017-05-12T10:59:20.507Z,32.31
2017-05-12T11:00:20.464Z,32.41
2017-05-12T11:01:20.472Z,32.21
2017-05-12T11:02:20.479Z,32.14
2017-05-12T11:03:20.175Z,32.04
2017-05-12T11:04:20.496Z,32.12
2017-05-12T11:05:20.552Z,32.21
2017-05-12T11:06:20.199Z,32.23
2017-05-12T11:07:20.257Z,32.21
2017-05-12T11:08:20.575Z,32.21
2017-05-12T11:09:20.531Z,32.12
2017-05-12T11:10:20.229Z,32.12
2017-05-12T11:11:20.546Z,31.94
2017-05-12T11:12:20.556Z,31.84
2017-05-12T11:13:20.562Z,32.04
2017-05-12T11:14:20.573Z,32.12
2017-05-12T11:15:20.578Z,32.41
2017-05-12T11:16:20.585Z,32.41
2017-05-12T11:17:20.625Z,32.51
2017-05-12T11:18:20.601Z,32.51
2017-05-12T11:19:20.293Z,32.41
2017-05-12T11:20:20.616Z,32.51
2017-05-12T11:21:20.622Z,32.31
2017-05-12T11:22:20.631Z,32.31
2017-05-12T11:23:20.639Z,32.51
2017-05-12T11:24:20.649Z,32.41
2017-05-12T11:25:20.655Z,32.51
2017-05-12T11:26:20.662Z,32.51
2017-05-12T11:27:20.357Z,32.51
2017-05-12T11:28:20.367Z,32.6
2017-05-12T11:29:20.686Z,32.7
2017-05-12T11:30:20.692Z,32.6
2017-05-12T11:31:20.388Z,32.7
2017-05-12T11:32:20.396Z,32.79
2017-05-12T11:33:20.402Z,32.89
2017-05-12T11:34:20.769Z,32.87
2017-05-12T11:35:20.417Z,33.37
2017-05-12T11:36:20.737Z,33.36
2017-05-12T11:37:20.747Z,32.97
2017-05-12T11:38:20.750Z,33.36
2017-05-12T11:39:20.757Z,33.17
2017-05-12T11:40:20.818Z,33.26
2017-05-12T11:41:20.466Z,33.65
2017-05-12T11:42:20.780Z,33.55
2017-05-12T11:43:20.789Z,33.65
2017-05-12T11:44:20.794Z,34.02
2017-05-12T11:45:20.853Z,33.92
2017-05-12T11:46:20.810Z,33.73
2017-05-12T11:47:20.813Z,33.92
2017-05-12T11:48:20.822Z,33.75
2017-05-12T11:49:20.834Z,33.92
2017-05-12T11:50:20.890Z,33.73
2017-05-12T11:51:20.844Z,33.92
2017-05-12T11:52:20.851Z,34.31
2017-05-12T11:53:20.859Z,34.21
2017-05-12T11:54:20.864Z,33.63
2017-05-12T11:55:20.877Z,33.73
2017-05-12T11:56:20.575Z,33.83
2017-05-12T11:57:20.891Z,33.92
2017-05-12T11:58:20.896Z,33.63
2017-05-12T11:59:20.902Z,33.83
2017-05-12T12:00:20.909Z,33.73
2017-05-12T12:01:20.970Z,33.55
2017-05-12T12:02:20.923Z,33.36
2017-05-12T12:03:21.236Z,33.55
2017-05-12T12:04:20.988Z,33.55
2017-05-12T12:05:20.997Z,33.17
2017-05-12T12:06:20.952Z,33.26
2017-05-12T12:07:21.061Z,33.36
2017-05-12T12:08:20.966Z,32.87
2017-05-12T12:09:20.976Z,32.78
2017-05-12T12:10:20.671Z,32.6
2017-05-12T12:11:20.683Z,32.41
2017-05-12T12:12:20.687Z,32.31
2017-05-12T12:13:21.002Z,32.12
2017-05-12T12:14:21.012Z,32.14
2017-05-12T12:15:21.070Z,31.84
2017-05-12T12:16:21.026Z,31.84
2017-05-12T12:17:21.033Z,31.84
2017-05-12T12:18:21.051Z,31.74
2017-05-12T12:19:21.049Z,31.74
2017-05-12T12:20:21.071Z,31.74
2017-05-12T12:21:21.061Z,31.56
2017-05-12T12:22:20.762Z,31.74
2017-05-12T12:23:20.769Z,31.84
2017-05-12T12:24:20.775Z,31.84
2017-05-12T12:25:20.781Z,31.94
2017-05-12T12:26:21.101Z,32.04
2017-05-12T12:27:21.111Z,32.23
2017-05-12T12:28:21.118Z,32.12
2017-05-12T12:29:21.122Z,32.04
2017-05-12T12:30:21.131Z,32.04
2017-05-12T12:31:21.190Z,32.42
2017-05-12T12:32:21.145Z,32.62
2017-05-12T12:33:21.151Z,32.6
2017-05-12T12:34:21.161Z,32.99
2017-05-12T12:35:21.216Z,33.28
2017-05-12T12:36:21.174Z,32.79
2017-05-12T12:37:21.182Z,32.7
2017-05-12T12:38:21.190Z,32.79
2017-05-12T12:39:21.202Z,32.79
2017-05-12T12:40:20.896Z,33.28
2017-05-12T12:41:20.901Z,33.28
2017-05-12T12:42:21.220Z,33.09
2017-05-12T12:43:21.329Z,33.09
2017-05-12T12:44:21.283Z,33.37
2017-05-12T12:45:21.284Z,33.09
2017-05-12T12:46:21.255Z,33.09
2017-05-12T12:47:21.259Z,32.99
2017-05-12T12:48:21.267Z,33.67
2017-05-12T12:49:21.268Z,33.95
2017-05-12T12:50:21.278Z,33.95
2017-05-12T12:51:20.983Z,33.76
2017-05-12T12:52:21.294Z,33.76
2017-05-12T12:53:21.303Z,33.86
2017-05-12T12:54:21.309Z,33.76